sensor_id;sensor_type;location;lat;lon;timestamp;P1;durP1;ratioP1;P2;durP2;ratioP2
15968;SDS011;8085;53.472;9.794;2022-07-01T00:00:45;4.83;;;2.30;;
15968;SDS011;8085;53.472;9.794;2022-07-01T00:03:14;4.17;;;2.30;;
15968;SDS011;8085;53.472;9.794;2022-07-01T00:05:41;4.67;;;1.97;;
15968;SDS011;8085;53.472;9.794;2022-07-01T00:08:09;9.03;;;3.07;;
15968;SDS011;8085;53.472;9.794;2022-07-01T00:10:36;9.00;;;2.53;;
15968;SDS011;8085;53.472;9.794;2022-07-01T00:13:03;8.33;;;2.50;;
15968;SDS011;8085;53.472;9.794;2022-07-01T00:15:31;3.80;;;2.20;;
15968;SDS011;8085;53.472;9.794;2022-07-01T00:17:59;5.03;;;2.47;;
15968;SDS011;8085;53.472;9.794;2022-07-01T00:20:27;5.63;;;2.33;;
15968;SDS011;8085;53.472;9.794;2022-07-01T00:22:55;5.20;;;2.33;;
15968;SDS011;8085;53.472;9.794;2022-07-01T00:25:22;6.67;;;2.70;;
15968;SDS011;8085;53.472;9.794;2022-07-01T00:27:49;4.17;;;2.60;;
15968;SDS011;8085;53.472;9.794;2022-07-01T00:30:16;6.33;;;2.90;;
15968;SDS011;8085;53.472;9.794;2022-07-01T00:32:43;6.03;;;2.30;;
15968;SDS011;8085;53.472;9.794;2022-07-01T00:35:11;5.40;;;2.50;;
15968;SDS011;8085;53.472;9.794;2022-07-01T00:37:40;5.30;;;2.50;;
15968;SDS011;8085;53.472;9.794;2022-07-01T00:40:13;6.50;;;2.50;;
15968;SDS011;8085;53.472;9.794;2022-07-01T00:42:40;7.07;;;3.10;;
15968;SDS011;8085;53.472;9.794;2022-07-01T00:45:09;7.17;;;2.97;;
15968;SDS011;8085;53.472;9.794;2022-07-01T00:47:37;8.30;;;2.83;;
15968;SDS011;8085;53.472;9.794;2022-07-01T00:50:06;7.70;;;3.17;;
15968;SDS011;8085;53.472;9.794;2022-07-01T00:52:35;4.20;;;2.53;;
15968;SDS011;8085;53.472;9.794;2022-07-01T00:55:04;6.10;;;2.60;;
15968;SDS011;8085;53.472;9.794;2022-07-01T00:57:33;5.53;;;2.53;;
15968;SDS011;8085;53.472;9.794;2022-07-01T01:00:02;4.27;;;2.53;;
15968;SDS011;8085;53.472;9.794;2022-07-01T01:02:30;3.30;;;2.33;;
15968;SDS011;8085;53.472;9.794;2022-07-01T01:04:57;5.70;;;2.73;;
15968;SDS011;8085;53.472;9.794;2022-07-01T01:07:25;5.43;;;2.47;;
15968;SDS011;8085;53.472;9.794;2022-07-01T01:09:53;5.67;;;2.57;;
15968;SDS011;8085;53.472;9.794;2022-07-01T01:12:21;7.33;;;2.37;;
15968;SDS011;8085;53.472;9.794;2022-07-01T01:14:50;5.17;;;2.43;;
15968;SDS011;8085;53.472;9.794;2022-07-01T01:17:18;4.83;;;2.90;;
15968;SDS011;8085;53.472;9.794;2022-07-01T01:19:47;3.37;;;2.40;;
15968;SDS011;8085;53.472;9.794;2022-07-01T01:22:16;3.67;;;2.20;;
15968;SDS011;8085;53.472;9.794;2022-07-01T01:24:44;3.83;;;2.17;;
15968;SDS011;8085;53.472;9.794;2022-07-01T01:27:12;4.50;;;2.33;;
15968;SDS011;8085;53.472;9.794;2022-07-01T01:29:41;6.40;;;2.50;;
15968;SDS011;8085;53.472;9.794;2022-07-01T01:32:09;5.30;;;2.80;;
15968;SDS011;8085;53.472;9.794;2022-07-01T01:34:36;4.00;;;2.30;;
15968;SDS011;8085;53.472;9.794;2022-07-01T01:37:07;3.30;;;2.23;;
15968;SDS011;8085;53.472;9.794;2022-07-01T01:39:39;3.70;;;2.37;;
15968;SDS011;8085;53.472;9.794;2022-07-01T01:42:06;3.07;;;2.37;;
15968;SDS011;8085;53.472;9.794;2022-07-01T01:44:33;3.60;;;2.40;;
15968;SDS011;8085;53.472;9.794;2022-07-01T01:47:00;2.80;;;2.07;;
15968;SDS011;8085;53.472;9.794;2022-07-01T01:49:29;4.77;;;2.47;;
15968;SDS011;8085;53.472;9.794;2022-07-01T01:51:57;3.17;;;2.07;;
15968;SDS011;8085;53.472;9.794;2022-07-01T01:54:25;3.10;;;2.20;;
15968;SDS011;8085;53.472;9.794;2022-07-01T01:56:54;4.17;;;2.50;;
15968;SDS011;8085;53.472;9.794;2022-07-01T01:59:21;3.10;;;2.30;;
15968;SDS011;8085;53.472;9.794;2022-07-01T02:01:56;4.77;;;2.17;;
15968;SDS011;8085;53.472;9.794;2022-07-01T02:04:25;4.57;;;2.43;;
15968;SDS011;8085;53.472;9.794;2022-07-01T02:06:52;3.00;;;2.40;;
15968;SDS011;8085;53.472;9.794;2022-07-01T02:09:22;2.17;;;1.97;;
15968;SDS011;8085;53.472;9.794;2022-07-01T02:11:49;4.00;;;2.50;;
15968;SDS011;8085;53.472;9.794;2022-07-01T02:14:19;5.53;;;2.73;;
15968;SDS011;8085;53.472;9.794;2022-07-01T02:16:46;5.43;;;3.00;;
15968;SDS011;8085;53.472;9.794;2022-07-01T02:19:13;5.27;;;3.40;;
15968;SDS011;8085;53.472;9.794;2022-07-01T02:21:40;5.80;;;3.40;;
15968;SDS011;8085;53.472;9.794;2022-07-01T02:24:08;4.30;;;3.40;;
15968;SDS011;8085;53.472;9.794;2022-07-01T02:26:38;3.43;;;2.90;;
15968;SDS011;8085;53.472;9.794;2022-07-01T02:29:05;5.20;;;3.43;;
15968;SDS011;8085;53.472;9.794;2022-07-01T02:31:34;4.13;;;3.20;;
15968;SDS011;8085;53.472;9.794;2022-07-01T02:34:00;6.37;;;3.70;;
15968;SDS011;8085;53.472;9.794;2022-07-01T02:36:31;4.90;;;3.40;;
15968;SDS011;8085;53.472;9.794;2022-07-01T02:38:58;6.07;;;3.90;;
15968;SDS011;8085;53.472;9.794;2022-07-01T02:41:25;5.37;;;3.53;;
15968;SDS011;8085;53.472;9.794;2022-07-01T02:43:52;5.90;;;4.30;;
15968;SDS011;8085;53.472;9.794;2022-07-01T02:46:19;7.23;;;4.50;;
15968;SDS011;8085;53.472;9.794;2022-07-01T02:48:47;4.30;;;3.70;;
15968;SDS011;8085;53.472;9.794;2022-07-01T02:51:14;8.60;;;4.27;;
15968;SDS011;8085;53.472;9.794;2022-07-01T02:53:41;5.07;;;4.07;;
15968;SDS011;8085;53.472;9.794;2022-07-01T02:56:09;6.53;;;4.87;;
15968;SDS011;8085;53.472;9.794;2022-07-01T02:58:36;5.07;;;4.43;;
15968;SDS011;8085;53.472;9.794;2022-07-01T03:01:03;6.73;;;4.87;;
15968;SDS011;8085;53.472;9.794;2022-07-01T03:03:30;5.27;;;4.37;;
15968;SDS011;8085;53.472;9.794;2022-07-01T03:05:59;6.30;;;5.10;;
15968;SDS011;8085;53.472;9.794;2022-07-01T03:08:26;7.70;;;5.37;;
15968;SDS011;8085;53.472;9.794;2022-07-01T03:10:53;6.93;;;5.33;;
15968;SDS011;8085;53.472;9.794;2022-07-01T03:13:20;7.33;;;6.03;;
15968;SDS011;8085;53.472;9.794;2022-07-01T03:15:47;9.60;;;7.83;;
15968;SDS011;8085;53.472;9.794;2022-07-01T03:18:17;11.27;;;7.67;;
15968;SDS011;8085;53.472;9.794;2022-07-01T03:20:44;10.63;;;9.10;;
15968;SDS011;8085;53.472;9.794;2022-07-01T03:23:13;13.27;;;9.93;;
15968;SDS011;8085;53.472;9.794;2022-07-01T03:25:40;12.17;;;9.73;;
15968;SDS011;8085;53.472;9.794;2022-07-01T03:28:07;12.27;;;9.50;;
15968;SDS011;8085;53.472;9.794;2022-07-01T03:30:34;10.93;;;8.80;;
15968;SDS011;8085;53.472;9.794;2022-07-01T03:33:01;12.87;;;9.60;;
15968;SDS011;8085;53.472;9.794;2022-07-01T03:35:28;9.63;;;7.93;;
15968;SDS011;8085;53.472;9.794;2022-07-01T03:38:06;12.17;;;7.87;;
15968;SDS011;8085;53.472;9.794;2022-07-01T03:40:35;9.50;;;7.60;;
15968;SDS011;8085;53.472;9.794;2022-07-01T03:43:02;8.00;;;6.90;;
15968;SDS011;8085;53.472;9.794;2022-07-01T03:45:29;10.83;;;7.47;;
15968;SDS011;8085;53.472;9.794;2022-07-01T03:47:56;8.90;;;6.87;;
15968;SDS011;8085;53.472;9.794;2022-07-01T03:50:24;9.13;;;7.33;;
15968;SDS011;8085;53.472;9.794;2022-07-01T03:53:04;8.67;;;6.73;;
15968;SDS011;8085;53.472;9.794;2022-07-01T03:55:54;8.43;;;6.87;;
15968;SDS011;8085;53.472;9.794;2022-07-01T03:58:21;8.10;;;7.30;;
15968;SDS011;8085;53.472;9.794;2022-07-01T04:00:51;8.60;;;6.87;;
15968;SDS011;8085;53.472;9.794;2022-07-01T04:03:21;7.80;;;6.43;;
15968;SDS011;8085;53.472;9.794;2022-07-01T04:05:51;7.60;;;6.57;;
15968;SDS011;8085;53.472;9.794;2022-07-01T04:08:18;8.57;;;6.70;;
15968;SDS011;8085;53.472;9.794;2022-07-01T04:10:45;9.33;;;6.47;;
15968;SDS011;8085;53.472;9.794;2022-07-01T04:13:14;7.20;;;6.30;;
15968;SDS011;8085;53.472;9.794;2022-07-01T04:15:41;10.80;;;7.77;;
15968;SDS011;8085;53.472;9.794;2022-07-01T04:18:08;8.10;;;7.30;;
15968;SDS011;8085;53.472;9.794;2022-07-01T04:20:44;9.57;;;6.80;;
15968;SDS011;8085;53.472;9.794;2022-07-01T04:23:39;10.23;;;7.27;;
15968;SDS011;8085;53.472;9.794;2022-07-01T04:26:12;10.63;;;7.17;;
15968;SDS011;8085;53.472;9.794;2022-07-01T04:28:40;11.37;;;7.23;;
15968;SDS011;8085;53.472;9.794;2022-07-01T04:31:07;12.97;;;6.73;;
15968;SDS011;8085;53.472;9.794;2022-07-01T04:33:38;9.97;;;7.43;;
15968;SDS011;8085;53.472;9.794;2022-07-01T04:36:05;10.07;;;6.60;;
15968;SDS011;8085;53.472;9.794;2022-07-01T04:38:32;16.57;;;7.10;;
15968;SDS011;8085;53.472;9.794;2022-07-01T04:44:22;15.23;;;7.23;;
15968;SDS011;8085;53.472;9.794;2022-07-01T04:47:06;14.13;;;6.63;;
15968;SDS011;8085;53.472;9.794;2022-07-01T04:49:54;13.33;;;6.67;;
15968;SDS011;8085;53.472;9.794;2022-07-01T04:55:33;10.97;;;4.67;;
15968;SDS011;8085;53.472;9.794;2022-07-01T04:58:03;9.40;;;3.97;;
15968;SDS011;8085;53.472;9.794;2022-07-01T05:00:50;5.90;;;2.60;;
15968;SDS011;8085;53.472;9.794;2022-07-01T05:03:26;6.90;;;2.27;;
15968;SDS011;8085;53.472;9.794;2022-07-01T05:06:10;6.60;;;2.23;;
15968;SDS011;8085;53.472;9.794;2022-07-01T05:08:46;4.80;;;2.10;;
15968;SDS011;8085;53.472;9.794;2022-07-01T05:11:19;6.07;;;3.00;;
15968;SDS011;8085;53.472;9.794;2022-07-01T05:13:47;6.70;;;3.00;;
15968;SDS011;8085;53.472;9.794;2022-07-01T05:16:19;5.03;;;2.60;;
15968;SDS011;8085;53.472;9.794;2022-07-01T05:22:04;6.90;;;2.40;;
15968;SDS011;8085;53.472;9.794;2022-07-01T05:24:34;6.37;;;2.60;;
15968;SDS011;8085;53.472;9.794;2022-07-01T05:27:02;6.33;;;2.60;;
15968;SDS011;8085;53.472;9.794;2022-07-01T05:29:29;4.73;;;2.40;;
15968;SDS011;8085;53.472;9.794;2022-07-01T05:32:04;5.13;;;2.17;;
15968;SDS011;8085;53.472;9.794;2022-07-01T05:34:32;5.07;;;2.17;;
15968;SDS011;8085;53.472;9.794;2022-07-01T05:37:01;5.30;;;2.13;;
15968;SDS011;8085;53.472;9.794;2022-07-01T05:39:31;5.10;;;2.60;;
15968;SDS011;8085;53.472;9.794;2022-07-01T05:41:58;7.70;;;2.70;;
15968;SDS011;8085;53.472;9.794;2022-07-01T05:44:36;5.40;;;2.20;;
15968;SDS011;8085;53.472;9.794;2022-07-01T05:47:18;5.00;;;2.50;;
15968;SDS011;8085;53.472;9.794;2022-07-01T05:49:50;4.60;;;2.53;;
15968;SDS011;8085;53.472;9.794;2022-07-01T05:52:26;6.73;;;3.07;;
15968;SDS011;8085;53.472;9.794;2022-07-01T05:55:09;8.80;;;3.50;;
15968;SDS011;8085;53.472;9.794;2022-07-01T05:57:36;8.10;;;3.30;;
15968;SDS011;8085;53.472;9.794;2022-07-01T06:00:04;5.63;;;2.83;;
15968;SDS011;8085;53.472;9.794;2022-07-01T06:02:33;4.73;;;2.83;;
15968;SDS011;8085;53.472;9.794;2022-07-01T06:05:07;3.03;;;1.80;;
15968;SDS011;8085;53.472;9.794;2022-07-01T06:07:35;4.47;;;1.83;;
15968;SDS011;8085;53.472;9.794;2022-07-01T06:10:02;7.67;;;2.30;;
15968;SDS011;8085;53.472;9.794;2022-07-01T06:12:32;5.03;;;1.83;;
15968;SDS011;8085;53.472;9.794;2022-07-01T06:14:59;4.87;;;2.17;;
15968;SDS011;8085;53.472;9.794;2022-07-01T06:17:30;6.03;;;2.00;;
15968;SDS011;8085;53.472;9.794;2022-07-01T06:20:08;7.57;;;2.47;;
15968;SDS011;8085;53.472;9.794;2022-07-01T06:22:36;7.07;;;2.47;;
15968;SDS011;8085;53.472;9.794;2022-07-01T06:25:03;5.00;;;2.10;;
15968;SDS011;8085;53.472;9.794;2022-07-01T06:27:31;4.47;;;2.30;;
15968;SDS011;8085;53.472;9.794;2022-07-01T06:30:07;3.83;;;2.60;;
15968;SDS011;8085;53.472;9.794;2022-07-01T06:32:43;5.90;;;2.23;;
15968;SDS011;8085;53.472;9.794;2022-07-01T06:35:16;4.37;;;2.27;;
15968;SDS011;8085;53.472;9.794;2022-07-01T06:41:17;3.90;;;1.90;;
15968;SDS011;8085;53.472;9.794;2022-07-01T06:44:11;8.57;;;2.10;;
15968;SDS011;8085;53.472;9.794;2022-07-01T07:35:05;3.87;;;1.70;;
15968;SDS011;8085;53.472;9.794;2022-07-01T07:41:23;2.70;;;1.40;;
15968;SDS011;8085;53.472;9.794;2022-07-01T07:43:53;2.47;;;1.47;;
15968;SDS011;8085;53.472;9.794;2022-07-01T07:46:34;1.50;;;1.40;;
15968;SDS011;8085;53.472;9.794;2022-07-01T07:49:01;3.97;;;1.53;;
15968;SDS011;8085;53.472;9.794;2022-07-01T07:51:31;3.63;;;1.60;;
15968;SDS011;8085;53.472;9.794;2022-07-01T07:53:58;4.93;;;1.80;;
15968;SDS011;8085;53.472;9.794;2022-07-01T07:56:37;5.17;;;1.60;;
15968;SDS011;8085;53.472;9.794;2022-07-01T07:59:32;3.07;;;1.80;;
15968;SDS011;8085;53.472;9.794;2022-07-01T08:02:30;3.93;;;1.73;;
15968;SDS011;8085;53.472;9.794;2022-07-01T08:05:11;4.43;;;1.60;;
15968;SDS011;8085;53.472;9.794;2022-07-01T08:07:41;2.93;;;1.70;;
15968;SDS011;8085;53.472;9.794;2022-07-01T08:10:09;3.87;;;1.57;;
15968;SDS011;8085;53.472;9.794;2022-07-01T08:12:40;4.80;;;2.20;;
15968;SDS011;8085;53.472;9.794;2022-07-01T08:15:08;2.33;;;1.70;;
15968;SDS011;8085;53.472;9.794;2022-07-01T08:17:38;3.13;;;1.70;;
15968;SDS011;8085;53.472;9.794;2022-07-01T08:20:19;2.17;;;1.50;;
15968;SDS011;8085;53.472;9.794;2022-07-01T08:22:55;2.17;;;1.70;;
15968;SDS011;8085;53.472;9.794;2022-07-01T08:25:49;2.40;;;1.60;;
15968;SDS011;8085;53.472;9.794;2022-07-01T08:29:32;2.90;;;1.70;;
15968;SDS011;8085;53.472;9.794;2022-07-01T08:32:13;2.33;;;1.80;;
15968;SDS011;8085;53.472;9.794;2022-07-01T08:34:50;2.40;;;1.70;;
15968;SDS011;8085;53.472;9.794;2022-07-01T08:37:26;2.63;;;1.80;;
15968;SDS011;8085;53.472;9.794;2022-07-01T08:40:00;3.30;;;1.83;;
15968;SDS011;8085;53.472;9.794;2022-07-01T08:43:38;2.23;;;1.50;;
15968;SDS011;8085;53.472;9.794;2022-07-01T08:46:23;4.20;;;1.83;;
15968;SDS011;8085;53.472;9.794;2022-07-01T08:49:55;3.43;;;1.60;;
15968;SDS011;8085;53.472;9.794;2022-07-01T08:53:12;2.20;;;1.57;;
15968;SDS011;8085;53.472;9.794;2022-07-01T08:58:38;1.93;;;1.70;;
15968;SDS011;8085;53.472;9.794;2022-07-01T09:01:17;2.40;;;1.80;;
15968;SDS011;8085;53.472;9.794;2022-07-01T09:04:42;3.47;;;1.70;;
15968;SDS011;8085;53.472;9.794;2022-07-01T09:08:05;3.13;;;1.83;;
15968;SDS011;8085;53.472;9.794;2022-07-01T09:10:54;4.17;;;2.00;;
15968;SDS011;8085;53.472;9.794;2022-07-01T09:14:09;3.53;;;2.10;;
15968;SDS011;8085;53.472;9.794;2022-07-01T09:16:45;2.43;;;2.03;;
15968;SDS011;8085;53.472;9.794;2022-07-01T09:23:18;2.10;;;1.90;;
15968;SDS011;8085;53.472;9.794;2022-07-01T09:26:07;5.17;;;2.10;;
15968;SDS011;8085;53.472;9.794;2022-07-01T09:31:48;2.70;;;1.80;;
15968;SDS011;8085;53.472;9.794;2022-07-01T09:34:40;3.93;;;2.00;;
15968;SDS011;8085;53.472;9.794;2022-07-01T09:37:58;1.93;;;1.70;;
15968;SDS011;8085;53.472;9.794;2022-07-01T09:41:01;3.50;;;2.07;;
15968;SDS011;8085;53.472;9.794;2022-07-01T09:47:30;2.83;;;2.13;;
15968;SDS011;8085;53.472;9.794;2022-07-01T09:50:29;3.53;;;2.33;;
15968;SDS011;8085;53.472;9.794;2022-07-01T09:53:01;2.87;;;2.20;;
15968;SDS011;8085;53.472;9.794;2022-07-01T09:55:28;3.70;;;2.60;;
15968;SDS011;8085;53.472;9.794;2022-07-01T09:57:58;4.83;;;2.60;;
15968;SDS011;8085;53.472;9.794;2022-07-01T10:00:30;4.90;;;2.60;;
15968;SDS011;8085;53.472;9.794;2022-07-01T10:03:00;3.97;;;2.43;;
15968;SDS011;8085;53.472;9.794;2022-07-01T10:05:31;4.60;;;2.53;;
15968;SDS011;8085;53.472;9.794;2022-07-01T10:08:40;5.60;;;3.30;;
15968;SDS011;8085;53.472;9.794;2022-07-01T10:14:28;4.20;;;2.90;;
15968;SDS011;8085;53.472;9.794;2022-07-01T10:17:25;4.27;;;2.83;;
15968;SDS011;8085;53.472;9.794;2022-07-01T10:19:55;3.10;;;2.53;;
15968;SDS011;8085;53.472;9.794;2022-07-01T10:22:31;6.23;;;2.97;;
15968;SDS011;8085;53.472;9.794;2022-07-01T10:30:54;6.13;;;3.17;;
15968;SDS011;8085;53.472;9.794;2022-07-01T10:33:32;5.63;;;3.90;;
15968;SDS011;8085;53.472;9.794;2022-07-01T10:36:25;6.37;;;3.67;;
15968;SDS011;8085;53.472;9.794;2022-07-01T10:39:12;5.73;;;3.63;;
15968;SDS011;8085;53.472;9.794;2022-07-01T10:41:54;5.37;;;3.63;;
15968;SDS011;8085;53.472;9.794;2022-07-01T10:44:24;10.00;;;4.20;;
15968;SDS011;8085;53.472;9.794;2022-07-01T10:46:52;5.33;;;3.33;;
15968;SDS011;8085;53.472;9.794;2022-07-01T10:52:26;5.87;;;3.83;;
15968;SDS011;8085;53.472;9.794;2022-07-01T10:54:54;5.60;;;3.80;;
15968;SDS011;8085;53.472;9.794;2022-07-01T10:57:23;4.37;;;3.40;;
15968;SDS011;8085;53.472;9.794;2022-07-01T10:59:55;9.63;;;4.07;;
15968;SDS011;8085;53.472;9.794;2022-07-01T11:02:44;8.00;;;4.50;;
15968;SDS011;8085;53.472;9.794;2022-07-01T11:05:12;7.90;;;4.53;;
15968;SDS011;8085;53.472;9.794;2022-07-01T11:07:42;6.03;;;4.37;;
15968;SDS011;8085;53.472;9.794;2022-07-01T11:10:11;5.43;;;4.40;;
15968;SDS011;8085;53.472;9.794;2022-07-01T11:12:41;9.27;;;4.83;;
15968;SDS011;8085;53.472;9.794;2022-07-01T11:15:09;5.77;;;5.17;;
15968;SDS011;8085;53.472;9.794;2022-07-01T11:18:18;8.20;;;4.23;;
15968;SDS011;8085;53.472;9.794;2022-07-01T11:21:31;9.70;;;4.40;;
15968;SDS011;8085;53.472;9.794;2022-07-01T11:27:29;6.93;;;4.00;;
15968;SDS011;8085;53.472;9.794;2022-07-01T11:37:08;5.27;;;3.70;;
15968;SDS011;8085;53.472;9.794;2022-07-01T11:40:14;5.40;;;4.50;;
15968;SDS011;8085;53.472;9.794;2022-07-01T11:43:40;5.33;;;4.07;;
15968;SDS011;8085;53.472;9.794;2022-07-01T11:50:04;8.00;;;4.63;;
15968;SDS011;8085;53.472;9.794;2022-07-01T11:55:39;6.50;;;4.13;;
15968;SDS011;8085;53.472;9.794;2022-07-01T11:58:50;7.80;;;4.80;;
15968;SDS011;8085;53.472;9.794;2022-07-01T12:01:57;5.20;;;4.47;;
15968;SDS011;8085;53.472;9.794;2022-07-01T12:04:30;6.87;;;4.80;;
15968;SDS011;8085;53.472;9.794;2022-07-01T12:07:01;6.93;;;4.33;;
15968;SDS011;8085;53.472;9.794;2022-07-01T12:09:34;8.70;;;4.40;;
15968;SDS011;8085;53.472;9.794;2022-07-01T12:12:14;6.03;;;4.77;;
15968;SDS011;8085;53.472;9.794;2022-07-01T12:14:48;6.77;;;5.03;;
15968;SDS011;8085;53.472;9.794;2022-07-01T12:17:17;6.73;;;4.63;;
15968;SDS011;8085;53.472;9.794;2022-07-01T12:19:49;6.37;;;4.97;;
15968;SDS011;8085;53.472;9.794;2022-07-01T12:51:30;8.13;;;3.80;;
15968;SDS011;8085;53.472;9.794;2022-07-01T12:57:05;4.60;;;3.50;;
15968;SDS011;8085;53.472;9.794;2022-07-01T12:59:34;7.67;;;3.70;;
15968;SDS011;8085;53.472;9.794;2022-07-01T13:02:01;5.10;;;3.70;;
15968;SDS011;8085;53.472;9.794;2022-07-01T13:04:31;8.70;;;4.00;;
15968;SDS011;8085;53.472;9.794;2022-07-01T13:06:58;6.13;;;4.07;;
15968;SDS011;8085;53.472;9.794;2022-07-01T13:09:25;11.63;;;5.00;;
15968;SDS011;8085;53.472;9.794;2022-07-01T13:11:52;5.50;;;4.17;;
15968;SDS011;8085;53.472;9.794;2022-07-01T13:14:25;5.97;;;4.13;;
15968;SDS011;8085;53.472;9.794;2022-07-01T13:16:52;7.30;;;5.50;;
15968;SDS011;8085;53.472;9.794;2022-07-01T13:19:19;6.47;;;5.83;;
15968;SDS011;8085;53.472;9.794;2022-07-01T13:21:46;8.60;;;6.27;;
15968;SDS011;8085;53.472;9.794;2022-07-01T13:24:13;6.10;;;5.23;;
15968;SDS011;8085;53.472;9.794;2022-07-01T13:26:50;8.13;;;6.17;;
15968;SDS011;8085;53.472;9.794;2022-07-01T13:29:27;6.63;;;5.80;;
15968;SDS011;8085;53.472;9.794;2022-07-01T13:32:17;6.20;;;5.57;;
15968;SDS011;8085;53.472;9.794;2022-07-01T13:38:48;6.67;;;4.83;;
15968;SDS011;8085;53.472;9.794;2022-07-01T13:44:18;6.03;;;4.40;;
15968;SDS011;8085;53.472;9.794;2022-07-01T13:46:59;5.90;;;5.23;;
15968;SDS011;8085;53.472;9.794;2022-07-01T13:49:40;9.67;;;6.57;;
15968;SDS011;8085;53.472;9.794;2022-07-01T13:52:19;6.67;;;5.90;;
15968;SDS011;8085;53.472;9.794;2022-07-01T13:54:46;7.40;;;6.17;;
15968;SDS011;8085;53.472;9.794;2022-07-01T13:57:14;8.23;;;6.30;;
15968;SDS011;8085;53.472;9.794;2022-07-01T13:59:41;7.10;;;6.33;;
15968;SDS011;8085;53.472;9.794;2022-07-01T14:02:10;8.57;;;6.57;;
15968;SDS011;8085;53.472;9.794;2022-07-01T14:04:37;6.67;;;5.47;;
15968;SDS011;8085;53.472;9.794;2022-07-01T14:07:12;7.17;;;5.57;;
15968;SDS011;8085;53.472;9.794;2022-07-01T14:09:42;7.23;;;6.27;;
15968;SDS011;8085;53.472;9.794;2022-07-01T14:12:10;8.23;;;5.37;;
15968;SDS011;8085;53.472;9.794;2022-07-01T14:14:40;6.80;;;5.40;;
15968;SDS011;8085;53.472;9.794;2022-07-01T14:17:07;9.90;;;6.03;;
15968;SDS011;8085;53.472;9.794;2022-07-01T14:19:35;7.07;;;6.37;;
15968;SDS011;8085;53.472;9.794;2022-07-01T14:22:02;6.97;;;5.53;;
15968;SDS011;8085;53.472;9.794;2022-07-01T14:24:30;8.60;;;6.00;;
15968;SDS011;8085;53.472;9.794;2022-07-01T14:26:57;8.80;;;5.67;;
15968;SDS011;8085;53.472;9.794;2022-07-01T14:29:24;7.73;;;5.63;;
15968;SDS011;8085;53.472;9.794;2022-07-01T14:31:51;8.93;;;5.17;;
15968;SDS011;8085;53.472;9.794;2022-07-01T14:34:18;8.43;;;5.47;;
15968;SDS011;8085;53.472;9.794;2022-07-01T14:36:46;7.90;;;6.03;;
15968;SDS011;8085;53.472;9.794;2022-07-01T14:39:19;9.17;;;6.23;;
15968;SDS011;8085;53.472;9.794;2022-07-01T14:41:48;8.20;;;6.17;;
15968;SDS011;8085;53.472;9.794;2022-07-01T14:48:54;9.70;;;6.50;;
15968;SDS011;8085;53.472;9.794;2022-07-01T14:51:21;10.20;;;7.47;;
15968;SDS011;8085;53.472;9.794;2022-07-01T14:53:50;8.53;;;6.57;;
15968;SDS011;8085;53.472;9.794;2022-07-01T14:56:17;10.90;;;7.23;;
15968;SDS011;8085;53.472;9.794;2022-07-01T14:58:44;8.37;;;6.43;;
15968;SDS011;8085;53.472;9.794;2022-07-01T15:01:11;8.00;;;6.43;;
15968;SDS011;8085;53.472;9.794;2022-07-01T15:03:38;8.10;;;6.63;;
15968;SDS011;8085;53.472;9.794;2022-07-01T15:06:05;8.30;;;6.83;;
15968;SDS011;8085;53.472;9.794;2022-07-01T15:08:32;8.63;;;6.60;;
15968;SDS011;8085;53.472;9.794;2022-07-01T15:11:00;9.63;;;7.17;;
15968;SDS011;8085;53.472;9.794;2022-07-01T15:13:30;8.97;;;6.63;;
15968;SDS011;8085;53.472;9.794;2022-07-01T15:16:00;8.20;;;6.10;;
15968;SDS011;8085;53.472;9.794;2022-07-01T15:18:28;10.13;;;6.80;;
15968;SDS011;8085;53.472;9.794;2022-07-01T15:20:56;8.13;;;6.50;;
15968;SDS011;8085;53.472;9.794;2022-07-01T15:23:24;8.60;;;6.30;;
15968;SDS011;8085;53.472;9.794;2022-07-01T15:25:52;13.07;;;6.80;;
15968;SDS011;8085;53.472;9.794;2022-07-01T15:28:21;9.70;;;6.83;;
15968;SDS011;8085;53.472;9.794;2022-07-01T15:30:49;9.30;;;6.90;;
15968;SDS011;8085;53.472;9.794;2022-07-01T15:33:16;7.70;;;6.17;;
15968;SDS011;8085;53.472;9.794;2022-07-01T15:35:43;8.67;;;5.87;;
15968;SDS011;8085;53.472;9.794;2022-07-01T15:38:10;6.93;;;5.07;;
15968;SDS011;8085;53.472;9.794;2022-07-01T15:40:37;5.90;;;5.23;;
15968;SDS011;8085;53.472;9.794;2022-07-01T15:43:05;7.20;;;4.87;;
15968;SDS011;8085;53.472;9.794;2022-07-01T15:45:34;9.00;;;5.30;;
15968;SDS011;8085;53.472;9.794;2022-07-01T15:48:01;6.63;;;5.10;;
15968;SDS011;8085;53.472;9.794;2022-07-01T15:50:31;7.63;;;4.50;;
15968;SDS011;8085;53.472;9.794;2022-07-01T15:52:58;8.43;;;5.37;;
15968;SDS011;8085;53.472;9.794;2022-07-01T15:55:25;9.73;;;4.23;;
15968;SDS011;8085;53.472;9.794;2022-07-01T15:57:52;6.77;;;4.00;;
15968;SDS011;8085;53.472;9.794;2022-07-01T16:00:50;6.47;;;3.87;;
15968;SDS011;8085;53.472;9.794;2022-07-01T16:03:19;8.70;;;4.30;;
15968;SDS011;8085;53.472;9.794;2022-07-01T16:05:48;5.30;;;3.30;;
15968;SDS011;8085;53.472;9.794;2022-07-01T16:08:18;5.37;;;3.60;;
15968;SDS011;8085;53.472;9.794;2022-07-01T16:10:50;4.10;;;2.93;;
15968;SDS011;8085;53.472;9.794;2022-07-01T16:13:26;6.23;;;3.20;;
15968;SDS011;8085;53.472;9.794;2022-07-01T16:15:56;5.27;;;3.30;;
15968;SDS011;8085;53.472;9.794;2022-07-01T16:18:25;5.27;;;3.27;;
15968;SDS011;8085;53.472;9.794;2022-07-01T16:20:56;7.23;;;3.10;;
15968;SDS011;8085;53.472;9.794;2022-07-01T16:23:27;8.33;;;3.27;;
15968;SDS011;8085;53.472;9.794;2022-07-01T16:26:04;4.63;;;3.53;;
15968;SDS011;8085;53.472;9.794;2022-07-01T16:28:39;5.87;;;3.30;;
15968;SDS011;8085;53.472;9.794;2022-07-01T16:31:08;4.70;;;3.27;;
15968;SDS011;8085;53.472;9.794;2022-07-01T16:33:37;4.63;;;3.67;;
15968;SDS011;8085;53.472;9.794;2022-07-01T16:36:08;7.10;;;4.00;;
15968;SDS011;8085;53.472;9.794;2022-07-01T16:38:40;6.63;;;4.20;;
15968;SDS011;8085;53.472;9.794;2022-07-01T16:41:13;5.33;;;3.67;;
15968;SDS011;8085;53.472;9.794;2022-07-01T16:43:50;5.03;;;3.80;;
15968;SDS011;8085;53.472;9.794;2022-07-01T16:46:21;7.53;;;4.33;;
15968;SDS011;8085;53.472;9.794;2022-07-01T16:48:56;7.37;;;4.97;;
15968;SDS011;8085;53.472;9.794;2022-07-01T16:51:29;6.37;;;4.70;;
15968;SDS011;8085;53.472;9.794;2022-07-01T16:53:56;6.87;;;4.30;;
15968;SDS011;8085;53.472;9.794;2022-07-01T16:56:24;9.23;;;5.07;;
15968;SDS011;8085;53.472;9.794;2022-07-01T16:58:56;5.90;;;4.17;;
15968;SDS011;8085;53.472;9.794;2022-07-01T17:01:27;7.73;;;4.90;;
15968;SDS011;8085;53.472;9.794;2022-07-01T17:03:55;5.93;;;4.47;;
15968;SDS011;8085;53.472;9.794;2022-07-01T17:06:23;7.77;;;4.77;;
15968;SDS011;8085;53.472;9.794;2022-07-01T17:08:51;6.00;;;4.57;;
15968;SDS011;8085;53.472;9.794;2022-07-01T17:11:19;9.23;;;4.60;;
15968;SDS011;8085;53.472;9.794;2022-07-01T17:13:46;6.80;;;4.60;;
15968;SDS011;8085;53.472;9.794;2022-07-01T17:16:14;7.40;;;4.70;;
15968;SDS011;8085;53.472;9.794;2022-07-01T17:18:45;6.37;;;4.60;;
15968;SDS011;8085;53.472;9.794;2022-07-01T17:21:14;9.37;;;4.70;;
15968;SDS011;8085;53.472;9.794;2022-07-01T17:23:49;7.07;;;4.30;;
15968;SDS011;8085;53.472;9.794;2022-07-01T17:26:18;6.43;;;3.87;;
15968;SDS011;8085;53.472;9.794;2022-07-01T17:28:47;7.23;;;4.13;;
15968;SDS011;8085;53.472;9.794;2022-07-01T17:31:23;5.50;;;3.90;;
15968;SDS011;8085;53.472;9.794;2022-07-01T17:33:54;5.40;;;3.67;;
15968;SDS011;8085;53.472;9.794;2022-07-01T17:36:23;6.03;;;4.13;;
15968;SDS011;8085;53.472;9.794;2022-07-01T17:38:52;4.53;;;3.03;;
15968;SDS011;8085;53.472;9.794;2022-07-01T17:41:23;5.87;;;3.37;;
15968;SDS011;8085;53.472;9.794;2022-07-01T17:44:02;5.73;;;3.10;;
15968;SDS011;8085;53.472;9.794;2022-07-01T17:46:32;6.53;;;3.10;;
15968;SDS011;8085;53.472;9.794;2022-07-01T17:49:02;4.00;;;2.73;;
15968;SDS011;8085;53.472;9.794;2022-07-01T17:51:30;5.53;;;2.60;;
15968;SDS011;8085;53.472;9.794;2022-07-01T17:54:00;3.83;;;2.60;;
15968;SDS011;8085;53.472;9.794;2022-07-01T17:56:28;3.80;;;2.90;;
15968;SDS011;8085;53.472;9.794;2022-07-01T17:58:58;3.20;;;2.50;;
15968;SDS011;8085;53.472;9.794;2022-07-01T18:01:26;5.17;;;2.70;;
15968;SDS011;8085;53.472;9.794;2022-07-01T18:03:57;5.67;;;2.80;;
15968;SDS011;8085;53.472;9.794;2022-07-01T18:06:33;3.97;;;2.70;;
15968;SDS011;8085;53.472;9.794;2022-07-01T18:09:06;3.20;;;2.60;;